KMFI/MFI METAR and TAF weather

Enter ICAO airport designator
Station Type Date Time Source
KMFI METAR 2021/09/16 09:54 UTC NOAA

KMFI 160954Z AUTO 17006KT 10SM CLR 11/08 A3004 RMK AO2 SLP171 T01110083


Station Type Date Time Source
KMFI Decoded METAR 2021/09/16 09:54 UTC NOAA

MARSHFIELD MUNICIPAL AIRPORT, WI, United States (KMFI) 44-38N 90-11W 379M
Sep 16, 2021 - 05:54 AM EDT / 2021.09.16 0954 UTC
Wind: from the S (170 degrees) at 7 MPH (6 KT):0
Visibility: 10 mile(s):0
Sky conditions: clear
Temperature: 52.0 F (11.1 C)
Dew Point: 46.9 F (8.3 C)
Relative Humidity: 82%
Pressure (altimeter): 30.04 in. Hg (1017 hPa)
ob: KMFI 160954Z AUTO 17006KT 10SM CLR 11/08 A3004 RMK AO2 SLP171 T01110083
cycle: 10

Station Type Date Time Source
KMFI TAF UTC NOAA

Error!

Example: see airport list